sensor_id;sensor_type;location;lat;lon;timestamp;P1;durP1;ratioP1;P2;durP2;ratioP2
75195;SDS011;63773;42.282;22.782;2023-06-22T00:02:02;22.27;;;17.85;;
75195;SDS011;63773;42.282;22.782;2023-06-22T00:04:27;22.58;;;17.65;;
75195;SDS011;63773;42.282;22.782;2023-06-22T00:06:52;22.33;;;17.67;;
75195;SDS011;63773;42.282;22.782;2023-06-22T00:09:18;20.95;;;17.35;;
75195;SDS011;63773;42.282;22.782;2023-06-22T00:11:43;24.88;;;17.25;;
75195;SDS011;63773;42.282;22.782;2023-06-22T00:14:09;27.02;;;18.30;;
75195;SDS011;63773;42.282;22.782;2023-06-22T00:16:34;21.73;;;17.00;;
75195;SDS011;63773;42.282;22.782;2023-06-22T00:19:00;24.33;;;18.58;;
75195;SDS011;63773;42.282;22.782;2023-06-22T00:21:27;29.15;;;20.25;;
75195;SDS011;63773;42.282;22.782;2023-06-22T00:23:52;29.50;;;22.27;;
75195;SDS011;63773;42.282;22.782;2023-06-22T00:26:18;30.80;;;23.05;;
75195;SDS011;63773;42.282;22.782;2023-06-22T00:28:44;30.33;;;21.95;;
75195;SDS011;63773;42.282;22.782;2023-06-22T00:31:09;28.80;;;21.92;;
75195;SDS011;63773;42.282;22.782;2023-06-22T00:33:35;27.80;;;20.10;;
75195;SDS011;63773;42.282;22.782;2023-06-22T00:36:20;23.10;;;16.90;;
75195;SDS011;63773;42.282;22.782;2023-06-22T00:38:45;25.35;;;17.00;;
75195;SDS011;63773;42.282;22.782;2023-06-22T00:41:11;24.67;;;18.50;;
75195;SDS011;63773;42.282;22.782;2023-06-22T00:43:36;25.90;;;18.50;;
75195;SDS011;63773;42.282;22.782;2023-06-22T00:46:02;25.52;;;19.45;;
75195;SDS011;63773;42.282;22.782;2023-06-22T00:48:28;26.70;;;18.73;;
75195;SDS011;63773;42.282;22.782;2023-06-22T00:50:53;25.20;;;18.80;;
75195;SDS011;63773;42.282;22.782;2023-06-22T00:55:46;29.83;;;18.55;;
75195;SDS011;63773;42.282;22.782;2023-06-22T00:58:13;23.95;;;16.77;;
75195;SDS011;63773;42.282;22.782;2023-06-22T01:00:39;21.75;;;17.33;;
75195;SDS011;63773;42.282;22.782;2023-06-22T01:03:06;24.23;;;18.38;;
75195;SDS011;63773;42.282;22.782;2023-06-22T01:05:35;23.98;;;17.48;;
75195;SDS011;63773;42.282;22.782;2023-06-22T01:10:49;24.80;;;17.77;;
75195;SDS011;63773;42.282;22.782;2023-06-22T01:16:22;21.42;;;17.67;;
75195;SDS011;63773;42.282;22.782;2023-06-22T01:18:51;29.10;;;18.20;;
75195;SDS011;63773;42.282;22.782;2023-06-22T01:21:20;22.75;;;16.80;;
75195;SDS011;63773;42.282;22.782;2023-06-22T01:24:30;22.95;;;15.80;;
75195;SDS011;63773;42.282;22.782;2023-06-22T01:27:18;20.73;;;15.73;;
75195;SDS011;63773;42.282;22.782;2023-06-22T01:29:59;21.73;;;15.57;;
75195;SDS011;63773;42.282;22.782;2023-06-22T01:32:28;22.17;;;16.52;;
75195;SDS011;63773;42.282;22.782;2023-06-22T01:34:58;22.05;;;18.10;;
75195;SDS011;63773;42.282;22.782;2023-06-22T01:37:27;21.90;;;17.27;;
75195;SDS011;63773;42.282;22.782;2023-06-22T01:39:54;26.10;;;18.30;;
75195;SDS011;63773;42.282;22.782;2023-06-22T01:42:21;19.48;;;15.77;;
75195;SDS011;63773;42.282;22.782;2023-06-22T01:44:48;21.85;;;16.08;;
75195;SDS011;63773;42.282;22.782;2023-06-22T01:47:14;22.52;;;15.68;;
75195;SDS011;63773;42.282;22.782;2023-06-22T01:49:41;23.00;;;16.83;;
75195;SDS011;63773;42.282;22.782;2023-06-22T01:52:06;20.48;;;15.38;;
75195;SDS011;63773;42.282;22.782;2023-06-22T01:54:32;23.27;;;16.83;;
75195;SDS011;63773;42.282;22.782;2023-06-22T01:56:58;21.48;;;17.85;;
75195;SDS011;63773;42.282;22.782;2023-06-22T01:59:44;22.80;;;17.48;;
75195;SDS011;63773;42.282;22.782;2023-06-22T02:09:20;24.13;;;17.23;;
75195;SDS011;63773;42.282;22.782;2023-06-22T02:11:47;20.92;;;16.77;;
75195;SDS011;63773;42.282;22.782;2023-06-22T02:14:16;20.60;;;16.40;;
75195;SDS011;63773;42.282;22.782;2023-06-22T02:16:43;21.83;;;16.63;;
75195;SDS011;63773;42.282;22.782;2023-06-22T02:19:10;22.48;;;17.70;;
75195;SDS011;63773;42.282;22.782;2023-06-22T02:21:35;27.63;;;19.75;;
75195;SDS011;63773;42.282;22.782;2023-06-22T02:24:01;20.95;;;14.45;;
75195;SDS011;63773;42.282;22.782;2023-06-22T02:26:26;23.88;;;16.88;;
75195;SDS011;63773;42.282;22.782;2023-06-22T02:28:52;19.95;;;15.95;;
75195;SDS011;63773;42.282;22.782;2023-06-22T02:31:19;22.05;;;16.08;;
75195;SDS011;63773;42.282;22.782;2023-06-22T02:36:10;25.25;;;17.92;;
75195;SDS011;63773;42.282;22.782;2023-06-22T02:43:29;26.40;;;17.13;;
75195;SDS011;63773;42.282;22.782;2023-06-22T02:45:57;26.52;;;18.90;;
75195;SDS011;63773;42.282;22.782;2023-06-22T02:48:23;23.45;;;18.65;;
75195;SDS011;63773;42.282;22.782;2023-06-22T02:50:50;25.75;;;17.17;;
75195;SDS011;63773;42.282;22.782;2023-06-22T02:53:15;26.60;;;18.90;;
75195;SDS011;63773;42.282;22.782;2023-06-22T02:55:41;24.42;;;18.38;;
75195;SDS011;63773;42.282;22.782;2023-06-22T02:58:06;24.67;;;18.98;;
75195;SDS011;63773;42.282;22.782;2023-06-22T03:00:33;28.25;;;19.38;;
75195;SDS011;63773;42.282;22.782;2023-06-22T03:02:58;27.23;;;19.60;;
75195;SDS011;63773;42.282;22.782;2023-06-22T03:05:24;28.85;;;20.65;;
75195;SDS011;63773;42.282;22.782;2023-06-22T03:07:49;26.00;;;19.00;;
75195;SDS011;63773;42.282;22.782;2023-06-22T03:10:16;27.30;;;19.10;;
75195;SDS011;63773;42.282;22.782;2023-06-22T03:12:44;23.40;;;18.15;;
75195;SDS011;63773;42.282;22.782;2023-06-22T03:15:15;27.80;;;18.58;;
75195;SDS011;63773;42.282;22.782;2023-06-22T03:17:42;25.55;;;18.33;;
75195;SDS011;63773;42.282;22.782;2023-06-22T03:20:08;21.48;;;17.02;;
75195;SDS011;63773;42.282;22.782;2023-06-22T03:22:37;23.02;;;17.92;;
75195;SDS011;63773;42.282;22.782;2023-06-22T03:25:04;23.23;;;17.50;;
75195;SDS011;63773;42.282;22.782;2023-06-22T03:27:38;22.52;;;18.15;;
75195;SDS011;63773;42.282;22.782;2023-06-22T03:30:05;23.98;;;17.50;;
75195;SDS011;63773;42.282;22.782;2023-06-22T03:32:33;26.75;;;18.38;;
75195;SDS011;63773;42.282;22.782;2023-06-22T03:34:59;24.60;;;16.10;;
75195;SDS011;63773;42.282;22.782;2023-06-22T03:37:25;24.70;;;19.23;;
75195;SDS011;63773;42.282;22.782;2023-06-22T03:39:53;24.02;;;18.17;;
75195;SDS011;63773;42.282;22.782;2023-06-22T03:42:19;23.65;;;19.02;;
75195;SDS011;63773;42.282;22.782;2023-06-22T03:44:44;28.65;;;19.25;;
75195;SDS011;63773;42.282;22.782;2023-06-22T03:47:09;23.60;;;18.35;;
75195;SDS011;63773;42.282;22.782;2023-06-22T03:49:35;22.10;;;17.15;;
75195;SDS011;63773;42.282;22.782;2023-06-22T03:52:01;22.55;;;17.38;;
75195;SDS011;63773;42.282;22.782;2023-06-22T03:54:28;20.95;;;17.15;;
75195;SDS011;63773;42.282;22.782;2023-06-22T03:56:54;23.80;;;17.20;;
75195;SDS011;63773;42.282;22.782;2023-06-22T03:59:19;22.75;;;17.63;;
75195;SDS011;63773;42.282;22.782;2023-06-22T04:01:48;25.73;;;17.85;;
75195;SDS011;63773;42.282;22.782;2023-06-22T04:04:13;22.88;;;17.00;;
75195;SDS011;63773;42.282;22.782;2023-06-22T04:06:39;21.27;;;16.65;;
75195;SDS011;63773;42.282;22.782;2023-06-22T04:09:05;22.95;;;17.77;;
75195;SDS011;63773;42.282;22.782;2023-06-22T04:11:31;21.23;;;17.83;;
75195;SDS011;63773;42.282;22.782;2023-06-22T04:14:01;26.90;;;17.67;;
75195;SDS011;63773;42.282;22.782;2023-06-22T04:16:27;21.25;;;17.70;;
75195;SDS011;63773;42.282;22.782;2023-06-22T04:18:53;23.30;;;18.05;;
75195;SDS011;63773;42.282;22.782;2023-06-22T04:21:19;24.98;;;18.50;;
75195;SDS011;63773;42.282;22.782;2023-06-22T04:23:47;22.02;;;17.55;;
75195;SDS011;63773;42.282;22.782;2023-06-22T04:26:14;24.27;;;17.83;;
75195;SDS011;63773;42.282;22.782;2023-06-22T04:28:40;25.08;;;18.20;;
75195;SDS011;63773;42.282;22.782;2023-06-22T04:31:07;26.48;;;18.65;;
75195;SDS011;63773;42.282;22.782;2023-06-22T04:33:32;23.75;;;17.17;;
75195;SDS011;63773;42.282;22.782;2023-06-22T04:35:58;23.75;;;17.35;;
75195;SDS011;63773;42.282;22.782;2023-06-22T04:38:27;22.73;;;18.50;;
75195;SDS011;63773;42.282;22.782;2023-06-22T04:40:52;23.15;;;17.98;;
75195;SDS011;63773;42.282;22.782;2023-06-22T04:43:20;22.33;;;17.85;;
75195;SDS011;63773;42.282;22.782;2023-06-22T04:45:45;22.42;;;18.25;;
75195;SDS011;63773;42.282;22.782;2023-06-22T04:48:11;23.45;;;17.55;;
75195;SDS011;63773;42.282;22.782;2023-06-22T04:50:41;26.77;;;19.10;;
75195;SDS011;63773;42.282;22.782;2023-06-22T04:53:07;23.67;;;17.45;;
75195;SDS011;63773;42.282;22.782;2023-06-22T04:55:39;23.67;;;18.00;;
75195;SDS011;63773;42.282;22.782;2023-06-22T04:58:06;21.90;;;16.92;;
75195;SDS011;63773;42.282;22.782;2023-06-22T05:00:32;20.52;;;16.80;;
75195;SDS011;63773;42.282;22.782;2023-06-22T05:03:01;20.58;;;16.27;;
75195;SDS011;63773;42.282;22.782;2023-06-22T05:05:28;21.77;;;16.67;;
75195;SDS011;63773;42.282;22.782;2023-06-22T05:07:56;22.75;;;18.08;;
75195;SDS011;63773;42.282;22.782;2023-06-22T05:10:25;21.42;;;17.13;;
75195;SDS011;63773;42.282;22.782;2023-06-22T05:12:51;24.75;;;19.02;;
75195;SDS011;63773;42.282;22.782;2023-06-22T05:15:17;22.40;;;18.33;;
75195;SDS011;63773;42.282;22.782;2023-06-22T05:17:44;21.42;;;17.27;;
75195;SDS011;63773;42.282;22.782;2023-06-22T05:20:10;20.25;;;15.70;;
75195;SDS011;63773;42.282;22.782;2023-06-22T05:22:38;19.65;;;16.95;;
75195;SDS011;63773;42.282;22.782;2023-06-22T05:25:08;21.63;;;17.98;;
75195;SDS011;63773;42.282;22.782;2023-06-22T05:27:34;18.85;;;16.88;;
75195;SDS011;63773;42.282;22.782;2023-06-22T05:30:04;18.17;;;15.48;;
75195;SDS011;63773;42.282;22.782;2023-06-22T05:32:35;17.08;;;14.70;;
75195;SDS011;63773;42.282;22.782;2023-06-22T05:35:01;16.38;;;14.57;;
75195;SDS011;63773;42.282;22.782;2023-06-22T05:42:20;17.65;;;15.35;;
75195;SDS011;63773;42.282;22.782;2023-06-22T05:44:47;19.60;;;14.98;;
75195;SDS011;63773;42.282;22.782;2023-06-22T05:47:12;19.17;;;15.85;;
75195;SDS011;63773;42.282;22.782;2023-06-22T05:49:38;17.63;;;15.32;;
75195;SDS011;63773;42.282;22.782;2023-06-22T05:52:04;17.45;;;14.90;;
75195;SDS011;63773;42.282;22.782;2023-06-22T05:54:29;16.70;;;14.98;;
75195;SDS011;63773;42.282;22.782;2023-06-22T05:56:55;17.65;;;15.13;;
75195;SDS011;63773;42.282;22.782;2023-06-22T05:59:20;17.52;;;15.73;;
75195;SDS011;63773;42.282;22.782;2023-06-22T06:01:46;16.40;;;14.70;;
75195;SDS011;63773;42.282;22.782;2023-06-22T06:04:16;16.75;;;14.95;;
75195;SDS011;63773;42.282;22.782;2023-06-22T06:06:42;17.17;;;15.32;;
75195;SDS011;63773;42.282;22.782;2023-06-22T06:09:07;21.00;;;14.60;;
75195;SDS011;63773;42.282;22.782;2023-06-22T06:11:34;15.75;;;13.93;;
75195;SDS011;63773;42.282;22.782;2023-06-22T06:14:00;17.45;;;15.35;;
75195;SDS011;63773;42.282;22.782;2023-06-22T06:19:50;15.52;;;13.93;;
75195;SDS011;63773;42.282;22.782;2023-06-22T06:25:40;17.58;;;14.23;;
75195;SDS011;63773;42.282;22.782;2023-06-22T06:28:07;15.75;;;13.93;;
75195;SDS011;63773;42.282;22.782;2023-06-22T06:30:32;17.00;;;15.20;;
75195;SDS011;63773;42.282;22.782;2023-06-22T06:33:03;18.65;;;15.27;;
75195;SDS011;63773;42.282;22.782;2023-06-22T06:35:33;17.27;;;14.98;;
75195;SDS011;63773;42.282;22.782;2023-06-22T06:37:59;17.17;;;13.82;;
75195;SDS011;63773;42.282;22.782;2023-06-22T06:40:26;18.73;;;14.73;;
75195;SDS011;63773;42.282;22.782;2023-06-22T06:42:53;16.92;;;15.23;;
75195;SDS011;63773;42.282;22.782;2023-06-22T06:45:20;19.60;;;14.60;;
75195;SDS011;63773;42.282;22.782;2023-06-22T06:51:13;16.25;;;14.55;;
75195;SDS011;63773;42.282;22.782;2023-06-22T06:57:03;15.85;;;14.25;;
75195;SDS011;63773;42.282;22.782;2023-06-22T06:59:29;15.90;;;14.30;;
75195;SDS011;63773;42.282;22.782;2023-06-22T07:01:58;15.90;;;14.30;;
75195;SDS011;63773;42.282;22.782;2023-06-22T07:07:47;15.85;;;13.60;;
75195;SDS011;63773;42.282;22.782;2023-06-22T07:13:35;16.48;;;14.65;;
75195;SDS011;63773;42.282;22.782;2023-06-22T07:19:26;16.02;;;14.38;;
75195;SDS011;63773;42.282;22.782;2023-06-22T07:21:54;17.02;;;15.32;;
75195;SDS011;63773;42.282;22.782;2023-06-22T07:24:21;17.55;;;15.57;;
75195;SDS011;63773;42.282;22.782;2023-06-22T07:26:50;16.15;;;14.45;;
75195;SDS011;63773;42.282;22.782;2023-06-22T07:29:19;16.83;;;15.23;;
75195;SDS011;63773;42.282;22.782;2023-06-22T07:31:46;17.70;;;13.95;;
75195;SDS011;63773;42.282;22.782;2023-06-22T07:34:12;16.38;;;14.77;;
75195;SDS011;63773;42.282;22.782;2023-06-22T07:36:38;16.80;;;15.23;;
75195;SDS011;63773;42.282;22.782;2023-06-22T07:39:05;16.73;;;15.13;;
75195;SDS011;63773;42.282;22.782;2023-06-22T07:41:30;16.52;;;14.88;;
75195;SDS011;63773;42.282;22.782;2023-06-22T07:43:56;16.75;;;14.65;;
75195;SDS011;63773;42.282;22.782;2023-06-22T07:46:23;15.35;;;13.85;;
75195;SDS011;63773;42.282;22.782;2023-06-22T07:48:48;16.60;;;14.80;;
75195;SDS011;63773;42.282;22.782;2023-06-22T07:51:14;15.93;;;14.25;;
75195;SDS011;63773;42.282;22.782;2023-06-22T07:53:43;17.33;;;14.20;;
75195;SDS011;63773;42.282;22.782;2023-06-22T07:56:12;16.27;;;14.70;;
75195;SDS011;63773;42.282;22.782;2023-06-22T07:58:38;16.15;;;14.60;;
75195;SDS011;63773;42.282;22.782;2023-06-22T08:01:06;16.73;;;15.13;;
75195;SDS011;63773;42.282;22.782;2023-06-22T08:03:31;16.30;;;14.60;;
75195;SDS011;63773;42.282;22.782;2023-06-22T08:05:57;16.10;;;14.50;;
75195;SDS011;63773;42.282;22.782;2023-06-22T08:08:24;16.25;;;14.52;;
75195;SDS011;63773;42.282;22.782;2023-06-22T08:10:52;17.48;;;15.57;;
75195;SDS011;63773;42.282;22.782;2023-06-22T08:13:21;16.95;;;15.25;;
75195;SDS011;63773;42.282;22.782;2023-06-22T08:15:47;16.48;;;14.88;;
75195;SDS011;63773;42.282;22.782;2023-06-22T08:18:12;15.82;;;14.15;;
75195;SDS011;63773;42.282;22.782;2023-06-22T08:20:38;16.55;;;15.02;;
75195;SDS011;63773;42.282;22.782;2023-06-22T08:23:03;15.30;;;13.70;;
75195;SDS011;63773;42.282;22.782;2023-06-22T08:25:34;15.63;;;13.90;;
75195;SDS011;63773;42.282;22.782;2023-06-22T08:28:03;16.15;;;14.45;;
75195;SDS011;63773;42.282;22.782;2023-06-22T08:30:29;16.25;;;14.57;;
75195;SDS011;63773;42.282;22.782;2023-06-22T08:32:55;14.98;;;13.57;;
75195;SDS011;63773;42.282;22.782;2023-06-22T08:35:23;15.40;;;13.85;;
75195;SDS011;63773;42.282;22.782;2023-06-22T08:37:49;15.35;;;13.77;;
75195;SDS011;63773;42.282;22.782;2023-06-22T08:40:18;13.88;;;12.40;;
75195;SDS011;63773;42.282;22.782;2023-06-22T08:42:48;15.73;;;13.68;;
75195;SDS011;63773;42.282;22.782;2023-06-22T08:45:13;14.20;;;12.82;;
75195;SDS011;63773;42.282;22.782;2023-06-22T08:47:40;14.13;;;12.77;;
75195;SDS011;63773;42.282;22.782;2023-06-22T08:52:33;12.63;;;11.43;;
75195;SDS011;63773;42.282;22.782;2023-06-22T08:54:58;13.85;;;11.07;;
75195;SDS011;63773;42.282;22.782;2023-06-22T08:57:24;12.38;;;11.05;;
75195;SDS011;63773;42.282;22.782;2023-06-22T08:59:49;12.93;;;11.73;;
75195;SDS011;63773;42.282;22.782;2023-06-22T09:02:17;14.18;;;11.55;;
75195;SDS011;63773;42.282;22.782;2023-06-22T09:04:43;13.23;;;11.95;;
75195;SDS011;63773;42.282;22.782;2023-06-22T09:07:08;13.35;;;12.15;;
75195;SDS011;63773;42.282;22.782;2023-06-22T09:09:33;13.10;;;11.73;;
75195;SDS011;63773;42.282;22.782;2023-06-22T09:11:59;13.13;;;11.90;;
75195;SDS011;63773;42.282;22.782;2023-06-22T09:14:24;12.13;;;10.95;;
75195;SDS011;63773;42.282;22.782;2023-06-22T09:16:49;13.13;;;11.93;;
75195;SDS011;63773;42.282;22.782;2023-06-22T09:19:15;13.75;;;12.45;;
75195;SDS011;63773;42.282;22.782;2023-06-22T09:21:40;12.65;;;11.35;;
75195;SDS011;63773;42.282;22.782;2023-06-22T09:24:06;13.57;;;12.18;;
75195;SDS011;63773;42.282;22.782;2023-06-22T09:26:32;13.25;;;12.10;;
75195;SDS011;63773;42.282;22.782;2023-06-22T09:28:58;12.93;;;11.65;;
75195;SDS011;63773;42.282;22.782;2023-06-22T09:31:23;11.80;;;10.70;;
75195;SDS011;63773;42.282;22.782;2023-06-22T09:37:19;12.43;;;11.32;;
75195;SDS011;63773;42.282;22.782;2023-06-22T09:39:45;13.27;;;12.07;;
75195;SDS011;63773;42.282;22.782;2023-06-22T09:42:13;12.48;;;11.27;;
75195;SDS011;63773;42.282;22.782;2023-06-22T09:44:40;13.18;;;11.88;;
75195;SDS011;63773;42.282;22.782;2023-06-22T09:47:05;11.95;;;10.85;;
75195;SDS011;63773;42.282;22.782;2023-06-22T09:49:31;12.15;;;10.75;;
75195;SDS011;63773;42.282;22.782;2023-06-22T09:51:57;12.77;;;11.57;;
75195;SDS011;63773;42.282;22.782;2023-06-22T09:54:22;13.55;;;11.98;;
75195;SDS011;63773;42.282;22.782;2023-06-22T09:56:48;12.43;;;11.32;;
75195;SDS011;63773;42.282;22.782;2023-06-22T09:59:13;13.38;;;12.10;;
75195;SDS011;63773;42.282;22.782;2023-06-22T10:14:57;13.10;;;11.00;;
75195;SDS011;63773;42.282;22.782;2023-06-22T10:17:23;12.45;;;11.25;;
75195;SDS011;63773;42.282;22.782;2023-06-22T10:19:48;11.23;;;10.05;;
75195;SDS011;63773;42.282;22.782;2023-06-22T10:22:14;12.95;;;10.73;;
75195;SDS011;63773;42.282;22.782;2023-06-22T10:24:39;12.18;;;9.98;;
75195;SDS011;63773;42.282;22.782;2023-06-22T10:27:09;12.23;;;11.00;;
75195;SDS011;63773;42.282;22.782;2023-06-22T10:29:38;11.18;;;10.07;;
75195;SDS011;63773;42.282;22.782;2023-06-22T10:32:04;12.07;;;10.65;;
75195;SDS011;63773;42.282;22.782;2023-06-22T10:34:30;12.13;;;11.02;;
75195;SDS011;63773;42.282;22.782;2023-06-22T10:36:55;11.65;;;10.30;;
75195;SDS011;63773;42.282;22.782;2023-06-22T10:39:20;10.60;;;9.50;;
75195;SDS011;63773;42.282;22.782;2023-06-22T10:41:46;13.60;;;9.95;;
75195;SDS011;63773;42.282;22.782;2023-06-22T10:44:11;11.15;;;10.05;;
75195;SDS011;63773;42.282;22.782;2023-06-22T10:46:37;11.27;;;10.20;;
75195;SDS011;63773;42.282;22.782;2023-06-22T10:49:03;12.45;;;11.35;;
75195;SDS011;63773;42.282;22.782;2023-06-22T10:51:28;10.38;;;9.40;;
75195;SDS011;63773;42.282;22.782;2023-06-22T10:53:54;11.57;;;10.38;;
75195;SDS011;63773;42.282;22.782;2023-06-22T10:56:19;10.55;;;9.55;;
75195;SDS011;63773;42.282;22.782;2023-06-22T10:58:45;10.57;;;9.65;;
75195;SDS011;63773;42.282;22.782;2023-06-22T11:01:10;12.30;;;10.57;;
75195;SDS011;63773;42.282;22.782;2023-06-22T11:03:36;10.35;;;9.25;;
75195;SDS011;63773;42.282;22.782;2023-06-22T11:06:01;11.23;;;10.13;;
75195;SDS011;63773;42.282;22.782;2023-06-22T11:08:27;11.13;;;10.02;;
75195;SDS011;63773;42.282;22.782;2023-06-22T11:10:52;10.75;;;9.65;;
75195;SDS011;63773;42.282;22.782;2023-06-22T11:13:18;14.07;;;12.75;;
75195;SDS011;63773;42.282;22.782;2023-06-22T11:15:43;13.07;;;10.32;;
75195;SDS011;63773;42.282;22.782;2023-06-22T11:18:08;9.68;;;8.85;;
75195;SDS011;63773;42.282;22.782;2023-06-22T11:20:34;11.35;;;10.25;;
75195;SDS011;63773;42.282;22.782;2023-06-22T11:23:03;10.30;;;9.32;;
75195;SDS011;63773;42.282;22.782;2023-06-22T11:25:30;9.95;;;8.98;;
75195;SDS011;63773;42.282;22.782;2023-06-22T11:27:56;11.45;;;10.45;;
75195;SDS011;63773;42.282;22.782;2023-06-22T11:30:21;10.48;;;9.48;;
75195;SDS011;63773;42.282;22.782;2023-06-22T11:32:47;10.48;;;9.50;;
75195;SDS011;63773;42.282;22.782;2023-06-22T11:35:13;11.48;;;10.48;;
75195;SDS011;63773;42.282;22.782;2023-06-22T11:37:38;10.32;;;9.32;;
75195;SDS011;63773;42.282;22.782;2023-06-22T11:40:04;10.90;;;10.00;;
75195;SDS011;63773;42.282;22.782;2023-06-22T11:42:30;10.25;;;9.20;;
75195;SDS011;63773;42.282;22.782;2023-06-22T11:44:56;10.38;;;9.30;;
75195;SDS011;63773;42.282;22.782;2023-06-22T11:47:21;10.43;;;9.20;;
75195;SDS011;63773;42.282;22.782;2023-06-22T11:49:47;9.85;;;8.88;;
75195;SDS011;63773;42.282;22.782;2023-06-22T11:52:12;10.23;;;9.18;;
75195;SDS011;63773;42.282;22.782;2023-06-22T11:54:37;10.93;;;9.93;;
75195;SDS011;63773;42.282;22.782;2023-06-22T11:57:03;10.80;;;9.15;;
75195;SDS011;63773;42.282;22.782;2023-06-22T11:59:29;11.55;;;9.50;;
75195;SDS011;63773;42.282;22.782;2023-06-22T12:01:54;9.90;;;9.00;;
75195;SDS011;63773;42.282;22.782;2023-06-22T12:04:20;9.48;;;8.60;;
75195;SDS011;63773;42.282;22.782;2023-06-22T12:06:45;10.60;;;9.50;;
75195;SDS011;63773;42.282;22.782;2023-06-22T12:09:11;10.32;;;8.80;;
75195;SDS011;63773;42.282;22.782;2023-06-22T12:26:17;10.82;;;9.93;;
75195;SDS011;63773;42.282;22.782;2023-06-22T12:28:42;11.48;;;10.38;;
75195;SDS011;63773;42.282;22.782;2023-06-22T12:31:07;10.55;;;9.50;;
75195;SDS011;63773;42.282;22.782;2023-06-22T12:35:58;10.07;;;9.07;;
75195;SDS011;63773;42.282;22.782;2023-06-22T12:38:23;9.93;;;9.02;;
75195;SDS011;63773;42.282;22.782;2023-06-22T12:40:50;9.80;;;8.90;;
75195;SDS011;63773;42.282;22.782;2023-06-22T12:43:16;10.05;;;9.05;;
75195;SDS011;63773;42.282;22.782;2023-06-22T12:48:06;9.90;;;8.90;;
75195;SDS011;63773;42.282;22.782;2023-06-22T12:50:33;9.85;;;8.90;;
75195;SDS011;63773;42.282;22.782;2023-06-22T12:52:59;10.18;;;9.27;;
75195;SDS011;63773;42.282;22.782;2023-06-22T12:57:50;9.80;;;8.80;;
75195;SDS011;63773;42.282;22.782;2023-06-22T13:00:15;9.98;;;9.05;;
75195;SDS011;63773;42.282;22.782;2023-06-22T13:02:41;10.18;;;9.18;;
75195;SDS011;63773;42.282;22.782;2023-06-22T13:05:07;10.35;;;9.48;;
75195;SDS011;63773;42.282;22.782;2023-06-22T13:07:33;9.00;;;8.18;;
75195;SDS011;63773;42.282;22.782;2023-06-22T13:09:58;10.05;;;9.07;;
75195;SDS011;63773;42.282;22.782;2023-06-22T13:12:24;9.50;;;8.52;;
75195;SDS011;63773;42.282;22.782;2023-06-22T13:14:49;10.95;;;8.55;;
75195;SDS011;63773;42.282;22.782;2023-06-22T13:19:40;10.45;;;9.45;;
75195;SDS011;63773;42.282;22.782;2023-06-22T13:24:50;12.88;;;8.75;;
75195;SDS011;63773;42.282;22.782;2023-06-22T13:27:15;9.40;;;8.57;;
75195;SDS011;63773;42.282;22.782;2023-06-22T13:32:06;8.73;;;7.73;;
75195;SDS011;63773;42.282;22.782;2023-06-22T13:34:31;9.63;;;8.73;;
75195;SDS011;63773;42.282;22.782;2023-06-22T13:36:57;10.27;;;9.27;;
75195;SDS011;63773;42.282;22.782;2023-06-22T13:39:22;9.93;;;7.90;;
75195;SDS011;63773;42.282;22.782;2023-06-22T13:41:48;9.55;;;8.65;;
75195;SDS011;63773;42.282;22.782;2023-06-22T13:44:13;9.35;;;8.48;;
75195;SDS011;63773;42.282;22.782;2023-06-22T13:46:39;9.60;;;8.70;;
75195;SDS011;63773;42.282;22.782;2023-06-22T13:49:04;18.58;;;13.98;;
75195;SDS011;63773;42.282;22.782;2023-06-22T13:51:29;13.15;;;10.82;;
75195;SDS011;63773;42.282;22.782;2023-06-22T13:53:55;25.27;;;15.85;;
75195;SDS011;63773;42.282;22.782;2023-06-22T13:56:20;9.50;;;8.60;;
75195;SDS011;63773;42.282;22.782;2023-06-22T14:01:12;8.27;;;7.50;;
75195;SDS011;63773;42.282;22.782;2023-06-22T14:03:37;9.05;;;8.18;;
75195;SDS011;63773;42.282;22.782;2023-06-22T14:06:02;11.43;;;8.30;;
75195;SDS011;63773;42.282;22.782;2023-06-22T14:08:29;12.02;;;8.07;;
75195;SDS011;63773;42.282;22.782;2023-06-22T14:10:54;10.98;;;8.52;;
75195;SDS011;63773;42.282;22.782;2023-06-22T14:13:20;15.07;;;8.93;;
75195;SDS011;63773;42.282;22.782;2023-06-22T14:15:45;17.60;;;7.72;;
75195;SDS011;63773;42.282;22.782;2023-06-22T14:18:13;12.95;;;7.95;;
75195;SDS011;63773;42.282;22.782;2023-06-22T14:23:05;11.63;;;8.32;;
75195;SDS011;63773;42.282;22.782;2023-06-22T14:25:30;9.90;;;7.00;;
75195;SDS011;63773;42.282;22.782;2023-06-22T14:27:56;12.80;;;7.88;;
75195;SDS011;63773;42.282;22.782;2023-06-22T14:30:21;12.68;;;6.57;;
75195;SDS011;63773;42.282;22.782;2023-06-22T14:32:46;12.80;;;7.45;;
75195;SDS011;63773;42.282;22.782;2023-06-22T14:35:32;8.73;;;5.63;;
75195;SDS011;63773;42.282;22.782;2023-06-22T14:37:57;7.78;;;6.13;;
75195;SDS011;63773;42.282;22.782;2023-06-22T14:40:22;11.95;;;5.57;;
75195;SDS011;63773;42.282;22.782;2023-06-22T14:42:48;14.95;;;6.65;;
75195;SDS011;63773;42.282;22.782;2023-06-22T14:45:13;10.55;;;6.38;;
75195;SDS011;63773;42.282;22.782;2023-06-22T14:47:39;12.10;;;6.95;;
75195;SDS011;63773;42.282;22.782;2023-06-22T14:50:05;12.98;;;7.40;;
75195;SDS011;63773;42.282;22.782;2023-06-22T14:52:30;14.48;;;8.38;;
75195;SDS011;63773;42.282;22.782;2023-06-22T14:54:56;10.52;;;6.93;;
75195;SDS011;63773;42.282;22.782;2023-06-22T14:57:21;10.73;;;7.30;;
75195;SDS011;63773;42.282;22.782;2023-06-22T15:02:13;11.27;;;6.85;;
75195;SDS011;63773;42.282;22.782;2023-06-22T15:04:39;11.10;;;7.10;;
75195;SDS011;63773;42.282;22.782;2023-06-22T15:07:05;8.85;;;6.78;;
75195;SDS011;63773;42.282;22.782;2023-06-22T15:09:30;11.27;;;7.18;;
75195;SDS011;63773;42.282;22.782;2023-06-22T15:11:56;9.68;;;8.20;;
75195;SDS011;63773;42.282;22.782;2023-06-22T15:14:22;12.10;;;7.88;;
75195;SDS011;63773;42.282;22.782;2023-06-22T15:16:49;13.23;;;8.57;;
75195;SDS011;63773;42.282;22.782;2023-06-22T15:19:14;10.88;;;7.80;;
75195;SDS011;63773;42.282;22.782;2023-06-22T15:21:40;12.50;;;7.30;;
75195;SDS011;63773;42.282;22.782;2023-06-22T15:24:05;12.48;;;7.60;;
75195;SDS011;63773;42.282;22.782;2023-06-22T15:26:31;11.13;;;7.95;;
75195;SDS011;63773;42.282;22.782;2023-06-22T15:28:56;11.30;;;8.10;;
75195;SDS011;63773;42.282;22.782;2023-06-22T15:31:22;16.85;;;12.13;;
75195;SDS011;63773;42.282;22.782;2023-06-22T15:33:47;12.35;;;9.32;;
75195;SDS011;63773;42.282;22.782;2023-06-22T15:36:13;12.55;;;9.00;;
75195;SDS011;63773;42.282;22.782;2023-06-22T15:38:38;11.65;;;7.97;;
75195;SDS011;63773;42.282;22.782;2023-06-22T15:41:04;11.00;;;7.55;;
75195;SDS011;63773;42.282;22.782;2023-06-22T15:43:29;9.98;;;7.45;;
75195;SDS011;63773;42.282;22.782;2023-06-22T15:45:54;11.40;;;8.05;;
75195;SDS011;63773;42.282;22.782;2023-06-22T15:48:20;10.00;;;7.57;;
75195;SDS011;63773;42.282;22.782;2023-06-22T15:50:46;10.27;;;6.57;;
75195;SDS011;63773;42.282;22.782;2023-06-22T15:53:11;9.65;;;7.20;;
75195;SDS011;63773;42.282;22.782;2023-06-22T15:55:37;12.65;;;7.85;;
75195;SDS011;63773;42.282;22.782;2023-06-22T15:58:02;13.55;;;7.35;;